Terminal Aerodrome Forecast
Issued by NWS

Home | Current Version | Previous Version | Text Only | Print | Product List | Glossary On
Versions: 1 2 3 4 5 6 7 8 9 10 11 12 13 14
000
FTUS41 KPHI 040033 AAA
TAFPNE
TAF AMD
KPNE 040033Z 0401/0424 21004KT P6SM FEW100
      TEMPO 0401/0402 16010KT
     FM041400 23005KT P6SM FEW060
     FM041700 23012G20KT P6SM FEW060
     FM042300 23010KT P6SM SKC=

USA.gov is the U.S. government's official web portal to all federal, state and local government web resources and services.